sensor_id;sensor_type;location;lat;lon;timestamp;pressure;altitude;pressure_sealevel;temperature;humidity
45078;BME280;60508;42.622;25.416;2023-04-27T00:02:20;96270.59;;;9.46;74.69
45078;BME280;60508;42.622;25.416;2023-04-27T00:04:46;96283.41;;;9.44;74.67
45078;BME280;60508;42.622;25.416;2023-04-27T00:07:12;96278.25;;;9.38;75.40
45078;BME280;60508;42.622;25.416;2023-04-27T00:09:37;96289.16;;;9.31;75.54
45078;BME280;60508;42.622;25.416;2023-04-27T00:12:04;96285.16;;;9.34;76.20
45078;BME280;60508;42.622;25.416;2023-04-27T00:14:30;96280.63;;;9.34;75.92
45078;BME280;60508;42.622;25.416;2023-04-27T00:16:56;96286.34;;;9.43;74.67
45078;BME280;60508;42.622;25.416;2023-04-27T00:19:22;96289.94;;;9.31;74.15
45078;BME280;60508;42.622;25.416;2023-04-27T00:21:48;96283.22;;;9.29;73.79
45078;BME280;60508;42.622;25.416;2023-04-27T00:24:14;96278.66;;;9.29;74.62
45078;BME280;60508;42.622;25.416;2023-04-27T00:26:40;96291.44;;;9.22;75.86
45078;BME280;60508;42.622;25.416;2023-04-27T00:29:06;96295.72;;;9.23;75.72
45078;BME280;60508;42.622;25.416;2023-04-27T00:31:32;96294.19;;;9.27;76.31
45078;BME280;60508;42.622;25.416;2023-04-27T00:33:58;96283.06;;;9.19;75.79
45078;BME280;60508;42.622;25.416;2023-04-27T00:36:24;96289.88;;;9.26;76.62
45078;BME280;60508;42.622;25.416;2023-04-27T00:38:50;96299.31;;;9.29;76.04
45078;BME280;60508;42.622;25.416;2023-04-27T00:41:15;96301.69;;;9.25;77.50
45078;BME280;60508;42.622;25.416;2023-04-27T00:43:43;96299.56;;;9.27;77.90
45078;BME280;60508;42.622;25.416;2023-04-27T00:46:13;96295.00;;;9.28;77.25
45078;BME280;60508;42.622;25.416;2023-04-27T00:48:41;96301.31;;;9.39;76.82
45078;BME280;60508;42.622;25.416;2023-04-27T00:51:08;96304.63;;;9.46;77.23
45078;BME280;60508;42.622;25.416;2023-04-27T00:53:35;96308.22;;;9.35;77.01
45078;BME280;60508;42.622;25.416;2023-04-27T00:56:01;96312.22;;;9.32;77.42
45078;BME280;60508;42.622;25.416;2023-04-27T00:58:28;96314.16;;;9.37;77.01
45078;BME280;60508;42.622;25.416;2023-04-27T01:00:54;96297.38;;;9.24;77.35
45078;BME280;60508;42.622;25.416;2023-04-27T01:03:20;96311.81;;;9.23;78.17
45078;BME280;60508;42.622;25.416;2023-04-27T01:05:47;96310.53;;;9.26;78.46
45078;BME280;60508;42.622;25.416;2023-04-27T01:08:13;96310.28;;;9.10;77.62
45078;BME280;60508;42.622;25.416;2023-04-27T01:10:39;96308.84;;;9.03;79.10
45078;BME280;60508;42.622;25.416;2023-04-27T01:13:08;96319.72;;;9.13;78.37
45078;BME280;60508;42.622;25.416;2023-04-27T01:15:34;96328.31;;;9.15;73.62
45078;BME280;60508;42.622;25.416;2023-04-27T01:18:01;96334.22;;;9.34;73.14
45078;BME280;60508;42.622;25.416;2023-04-27T01:20:28;96331.69;;;9.44;72.59
45078;BME280;60508;42.622;25.416;2023-04-27T01:22:55;96333.50;;;9.39;71.85
45078;BME280;60508;42.622;25.416;2023-04-27T01:25:22;96327.41;;;9.43;71.52
45078;BME280;60508;42.622;25.416;2023-04-27T01:27:48;96341.59;;;9.44;73.11
45078;BME280;60508;42.622;25.416;2023-04-27T01:30:14;96350.53;;;9.49;73.29
45078;BME280;60508;42.622;25.416;2023-04-27T01:32:42;96343.66;;;9.37;72.90
45078;BME280;60508;42.622;25.416;2023-04-27T01:35:09;96352.75;;;9.36;73.13
45078;BME280;60508;42.622;25.416;2023-04-27T01:37:35;96348.19;;;9.36;72.84
45078;BME280;60508;42.622;25.416;2023-04-27T01:40:02;96342.22;;;9.29;72.02
45078;BME280;60508;42.622;25.416;2023-04-27T01:42:31;96348.22;;;9.19;72.09
45078;BME280;60508;42.622;25.416;2023-04-27T01:44:57;96342.44;;;9.10;73.10
45078;BME280;60508;42.622;25.416;2023-04-27T01:47:25;96353.81;;;9.01;73.96
45078;BME280;60508;42.622;25.416;2023-04-27T01:49:52;96350.50;;;9.10;73.57
45078;BME280;60508;42.622;25.416;2023-04-27T01:52:18;96347.09;;;8.98;73.41
45078;BME280;60508;42.622;25.416;2023-04-27T01:54:44;96348.94;;;8.98;73.18
45078;BME280;60508;42.622;25.416;2023-04-27T01:57:10;96351.31;;;8.94;73.36
45078;BME280;60508;42.622;25.416;2023-04-27T01:59:36;96359.03;;;8.90;74.00
45078;BME280;60508;42.622;25.416;2023-04-27T02:02:02;96352.63;;;8.91;73.73
45078;BME280;60508;42.622;25.416;2023-04-27T02:04:28;96355.31;;;8.91;73.45
45078;BME280;60508;42.622;25.416;2023-04-27T02:06:54;96349.44;;;8.94;72.56
45078;BME280;60508;42.622;25.416;2023-04-27T02:09:20;96354.06;;;8.99;72.52
45078;BME280;60508;42.622;25.416;2023-04-27T02:11:47;96355.03;;;8.93;71.80
45078;BME280;60508;42.622;25.416;2023-04-27T02:14:12;96359.34;;;8.94;71.79
45078;BME280;60508;42.622;25.416;2023-04-27T02:16:38;96359.59;;;8.92;71.84
45078;BME280;60508;42.622;25.416;2023-04-27T02:19:06;96367.53;;;9.04;71.39
45078;BME280;60508;42.622;25.416;2023-04-27T02:21:32;96369.41;;;9.04;71.57
45078;BME280;60508;42.622;25.416;2023-04-27T02:23:58;96370.72;;;8.84;73.04
45078;BME280;60508;42.622;25.416;2023-04-27T02:26:24;96368.78;;;8.97;71.83
45078;BME280;60508;42.622;25.416;2023-04-27T02:28:55;96372.63;;;8.72;72.98
45078;BME280;60508;42.622;25.416;2023-04-27T02:31:21;96378.81;;;8.72;73.07
45078;BME280;60508;42.622;25.416;2023-04-27T02:33:47;96376.88;;;8.85;72.04
45078;BME280;60508;42.622;25.416;2023-04-27T02:36:13;96379.63;;;8.73;72.04
45078;BME280;60508;42.622;25.416;2023-04-27T02:38:39;96382.31;;;8.73;72.04
45078;BME280;60508;42.622;25.416;2023-04-27T02:41:05;96384.09;;;8.84;72.27
45078;BME280;60508;42.622;25.416;2023-04-27T02:43:33;96382.88;;;8.75;72.33
45078;BME280;60508;42.622;25.416;2023-04-27T02:46:05;96380.81;;;8.65;72.07
45078;BME280;60508;42.622;25.416;2023-04-27T02:48:31;96383.41;;;8.60;72.03
45078;BME280;60508;42.622;25.416;2023-04-27T02:50:57;96395.03;;;8.66;71.11
45078;BME280;60508;42.622;25.416;2023-04-27T02:53:23;96396.50;;;8.73;70.55
45078;BME280;60508;42.622;25.416;2023-04-27T02:55:49;96387.97;;;8.76;70.73
45078;BME280;60508;42.622;25.416;2023-04-27T02:58:16;96389.53;;;8.89;68.95
45078;BME280;60508;42.622;25.416;2023-04-27T03:00:42;96384.75;;;8.74;69.37
45078;BME280;60508;42.622;25.416;2023-04-27T03:03:08;96396.22;;;8.87;69.98
45078;BME280;60508;42.622;25.416;2023-04-27T03:05:35;96401.50;;;8.99;68.78
45078;BME280;60508;42.622;25.416;2023-04-27T03:08:01;96409.38;;;9.05;67.24
45078;BME280;60508;42.622;25.416;2023-04-27T03:10:28;96406.69;;;9.05;67.08
45078;BME280;60508;42.622;25.416;2023-04-27T03:12:54;96404.81;;;8.89;68.35
45078;BME280;60508;42.622;25.416;2023-04-27T03:15:20;96419.78;;;9.02;66.96
45078;BME280;60508;42.622;25.416;2023-04-27T03:17:47;96418.31;;;9.11;66.93
45078;BME280;60508;42.622;25.416;2023-04-27T03:20:13;96434.16;;;9.29;66.30
45078;BME280;60508;42.622;25.416;2023-04-27T03:22:38;96430.00;;;9.56;66.68
45078;BME280;60508;42.622;25.416;2023-04-27T03:25:05;96438.84;;;9.73;66.28
45078;BME280;60508;42.622;25.416;2023-04-27T03:27:31;96437.47;;;9.71;65.10
45078;BME280;60508;42.622;25.416;2023-04-27T03:29:57;96434.31;;;9.57;65.99
45078;BME280;60508;42.622;25.416;2023-04-27T03:32:23;96437.72;;;9.52;65.84
45078;BME280;60508;42.622;25.416;2023-04-27T03:34:49;96445.59;;;9.25;67.18
45078;BME280;60508;42.622;25.416;2023-04-27T03:37:15;96438.88;;;9.22;67.05
45078;BME280;60508;42.622;25.416;2023-04-27T03:39:40;96437.31;;;9.09;68.04
45078;BME280;60508;42.622;25.416;2023-04-27T03:42:07;96435.84;;;9.02;69.16
45078;BME280;60508;42.622;25.416;2023-04-27T03:44:33;96447.28;;;8.80;70.07
45078;BME280;60508;42.622;25.416;2023-04-27T03:47:01;96441.91;;;8.80;70.27
45078;BME280;60508;42.622;25.416;2023-04-27T03:49:27;96449.63;;;8.93;70.16
45078;BME280;60508;42.622;25.416;2023-04-27T03:51:53;96449.34;;;8.78;70.80
45078;BME280;60508;42.622;25.416;2023-04-27T03:54:19;96452.56;;;8.63;71.53
45078;BME280;60508;42.622;25.416;2023-04-27T03:56:45;96460.53;;;8.75;70.73
45078;BME280;60508;42.622;25.416;2023-04-27T03:59:12;96458.09;;;8.73;71.19
45078;BME280;60508;42.622;25.416;2023-04-27T04:01:42;96458.47;;;8.77;70.48
45078;BME280;60508;42.622;25.416;2023-04-27T04:04:09;96466.44;;;8.89;69.87
45078;BME280;60508;42.622;25.416;2023-04-27T04:06:35;96467.84;;;8.91;69.33
45078;BME280;60508;42.622;25.416;2023-04-27T04:09:01;96472.91;;;8.93;68.94
45078;BME280;60508;42.622;25.416;2023-04-27T04:11:28;96478.50;;;9.03;69.21
45078;BME280;60508;42.622;25.416;2023-04-27T04:13:58;96479.53;;;9.02;68.97
45078;BME280;60508;42.622;25.416;2023-04-27T04:16:24;96483.41;;;8.94;68.87
45078;BME280;60508;42.622;25.416;2023-04-27T04:18:52;96464.00;;;8.87;69.08
45078;BME280;60508;42.622;25.416;2023-04-27T04:21:18;96482.13;;;8.97;69.77
45078;BME280;60508;42.622;25.416;2023-04-27T04:23:44;96482.44;;;9.01;69.01
45078;BME280;60508;42.622;25.416;2023-04-27T04:26:10;96479.88;;;8.77;69.03
45078;BME280;60508;42.622;25.416;2023-04-27T04:28:37;96474.78;;;8.75;68.84
45078;BME280;60508;42.622;25.416;2023-04-27T04:31:04;96475.97;;;8.68;68.82
45078;BME280;60508;42.622;25.416;2023-04-27T04:33:32;96487.06;;;8.88;68.82
45078;BME280;60508;42.622;25.416;2023-04-27T04:35:58;96485.72;;;8.74;69.50
45078;BME280;60508;42.622;25.416;2023-04-27T04:38:24;96493.63;;;8.81;70.45
45078;BME280;60508;42.622;25.416;2023-04-27T04:40:51;96480.38;;;8.62;68.85
45078;BME280;60508;42.622;25.416;2023-04-27T04:43:17;96497.91;;;8.82;68.31
45078;BME280;60508;42.622;25.416;2023-04-27T04:45:43;96491.50;;;8.83;69.60
45078;BME280;60508;42.622;25.416;2023-04-27T04:48:13;96507.53;;;8.94;68.43
45078;BME280;60508;42.622;25.416;2023-04-27T04:50:39;96501.81;;;9.03;68.18
45078;BME280;60508;42.622;25.416;2023-04-27T04:53:07;96514.91;;;9.16;68.29
45078;BME280;60508;42.622;25.416;2023-04-27T04:55:33;96511.06;;;9.12;66.87
45078;BME280;60508;42.622;25.416;2023-04-27T04:57:59;96517.66;;;9.21;65.56
45078;BME280;60508;42.622;25.416;2023-04-27T05:00:27;96506.91;;;9.50;66.68
45078;BME280;60508;42.622;25.416;2023-04-27T05:02:53;96517.94;;;9.54;66.75
45078;BME280;60508;42.622;25.416;2023-04-27T05:05:19;96520.78;;;9.47;66.01
45078;BME280;60508;42.622;25.416;2023-04-27T05:07:46;96518.09;;;9.47;66.34
45078;BME280;60508;42.622;25.416;2023-04-27T05:10:12;96522.81;;;9.57;66.03
45078;BME280;60508;42.622;25.416;2023-04-27T05:12:38;96513.56;;;9.64;65.73
45078;BME280;60508;42.622;25.416;2023-04-27T05:15:05;96524.13;;;9.54;66.61
45078;BME280;60508;42.622;25.416;2023-04-27T05:17:31;96521.34;;;9.49;66.66
45078;BME280;60508;42.622;25.416;2023-04-27T05:19:57;96520.09;;;9.23;66.33
45078;BME280;60508;42.622;25.416;2023-04-27T05:22:23;96528.28;;;9.16;66.21
45078;BME280;60508;42.622;25.416;2023-04-27T05:24:49;96516.56;;;9.05;67.12
45078;BME280;60508;42.622;25.416;2023-04-27T05:27:15;96514.91;;;9.16;66.52
45078;BME280;60508;42.622;25.416;2023-04-27T05:29:41;96520.25;;;9.16;66.77
45078;BME280;60508;42.622;25.416;2023-04-27T05:32:07;96518.81;;;9.25;66.58
45078;BME280;60508;42.622;25.416;2023-04-27T05:34:34;96517.34;;;9.35;66.14
45078;BME280;60508;42.622;25.416;2023-04-27T05:37:01;96518.22;;;9.23;66.57
45078;BME280;60508;42.622;25.416;2023-04-27T05:39:27;96520.19;;;9.28;67.04
45078;BME280;60508;42.622;25.416;2023-04-27T05:41:53;96503.09;;;9.17;66.90
45078;BME280;60508;42.622;25.416;2023-04-27T05:44:19;96515.84;;;9.10;66.04
45078;BME280;60508;42.622;25.416;2023-04-27T05:46:45;96510.09;;;9.18;66.95
45078;BME280;60508;42.622;25.416;2023-04-27T05:49:11;96500.09;;;9.13;66.70
45078;BME280;60508;42.622;25.416;2023-04-27T05:51:36;96503.69;;;9.19;66.82
45078;BME280;60508;42.622;25.416;2023-04-27T05:54:03;96506.38;;;9.19;66.44
45078;BME280;60508;42.622;25.416;2023-04-27T05:56:29;96507.03;;;8.98;67.02
45078;BME280;60508;42.622;25.416;2023-04-27T05:58:55;96512.16;;;9.28;66.13
45078;BME280;60508;42.622;25.416;2023-04-27T06:01:21;96522.88;;;9.28;66.35
45078;BME280;60508;42.622;25.416;2023-04-27T06:03:48;96523.31;;;9.37;65.75
45078;BME280;60508;42.622;25.416;2023-04-27T06:06:13;96523.25;;;9.20;66.49
45078;BME280;60508;42.622;25.416;2023-04-27T06:08:39;96519.94;;;9.12;65.92
45078;BME280;60508;42.622;25.416;2023-04-27T06:11:05;96520.41;;;9.09;65.71
45078;BME280;60508;42.622;25.416;2023-04-27T06:13:31;96529.03;;;9.28;66.15
45078;BME280;60508;42.622;25.416;2023-04-27T06:15:59;96527.78;;;9.48;64.67
45078;BME280;60508;42.622;25.416;2023-04-27T06:18:25;96529.06;;;9.45;64.99
45078;BME280;60508;42.622;25.416;2023-04-27T06:20:51;96521.84;;;9.46;64.89
45078;BME280;60508;42.622;25.416;2023-04-27T06:23:17;96526.38;;;9.62;64.57
45078;BME280;60508;42.622;25.416;2023-04-27T06:25:43;96527.03;;;9.53;64.79
45078;BME280;60508;42.622;25.416;2023-04-27T06:28:09;96536.72;;;9.37;65.21
45078;BME280;60508;42.622;25.416;2023-04-27T06:30:37;96537.59;;;9.25;65.27
45078;BME280;60508;42.622;25.416;2023-04-27T06:33:03;96540.84;;;9.27;65.52
45078;BME280;60508;42.622;25.416;2023-04-27T06:35:29;96535.66;;;9.72;64.73
45078;BME280;60508;42.622;25.416;2023-04-27T06:37:55;96533.63;;;9.62;64.68
45078;BME280;60508;42.622;25.416;2023-04-27T06:40:24;96538.91;;;9.74;64.42
45078;BME280;60508;42.622;25.416;2023-04-27T06:42:51;96537.69;;;9.81;64.15
45078;BME280;60508;42.622;25.416;2023-04-27T06:45:17;96538.91;;;9.74;63.47
45078;BME280;60508;42.622;25.416;2023-04-27T06:47:42;96533.81;;;9.72;64.35
45078;BME280;60508;42.622;25.416;2023-04-27T06:50:09;96536.41;;;9.67;63.63
45078;BME280;60508;42.622;25.416;2023-04-27T06:52:35;96539.56;;;9.47;64.25
45078;BME280;60508;42.622;25.416;2023-04-27T06:55:01;96547.59;;;9.47;64.84
45078;BME280;60508;42.622;25.416;2023-04-27T06:57:27;96538.88;;;9.40;64.47
45078;BME280;60508;42.622;25.416;2023-04-27T06:59:53;96552.56;;;9.55;63.82
45078;BME280;60508;42.622;25.416;2023-04-27T07:02:19;96535.66;;;9.72;62.93
45078;BME280;60508;42.622;25.416;2023-04-27T07:04:45;96545.69;;;9.59;63.93
45078;BME280;60508;42.622;25.416;2023-04-27T07:07:11;96535.75;;;9.77;62.89
45078;BME280;60508;42.622;25.416;2023-04-27T07:09:37;96526.41;;;9.79;62.97
45078;BME280;60508;42.622;25.416;2023-04-27T07:12:03;96523.63;;;10.08;62.26
45078;BME280;60508;42.622;25.416;2023-04-27T07:14:29;96530.94;;;9.96;60.79
45078;BME280;60508;42.622;25.416;2023-04-27T07:16:56;96542.47;;;10.13;61.48
45078;BME280;60508;42.622;25.416;2023-04-27T07:19:21;96526.50;;;10.23;61.68
45078;BME280;60508;42.622;25.416;2023-04-27T07:21:47;96540.53;;;10.26;60.24
45078;BME280;60508;42.622;25.416;2023-04-27T07:24:14;96537.69;;;10.32;60.21
45078;BME280;60508;42.622;25.416;2023-04-27T07:26:41;96540.66;;;10.19;60.25
45078;BME280;60508;42.622;25.416;2023-04-27T07:29:07;96537.44;;;10.34;59.52
45078;BME280;60508;42.622;25.416;2023-04-27T07:31:34;96537.72;;;10.20;59.85
45078;BME280;60508;42.622;25.416;2023-04-27T07:34:01;96543.97;;;10.43;59.50
45078;BME280;60508;42.622;25.416;2023-04-27T07:36:27;96555.00;;;10.24;59.14
45078;BME280;60508;42.622;25.416;2023-04-27T07:38:53;96555.31;;;10.45;59.50
45078;BME280;60508;42.622;25.416;2023-04-27T07:41:18;96555.56;;;10.44;58.45
45078;BME280;60508;42.622;25.416;2023-04-27T07:43:44;96552.78;;;10.21;59.20
45078;BME280;60508;42.622;25.416;2023-04-27T07:46:10;96551.13;;;10.32;59.31
45078;BME280;60508;42.622;25.416;2023-04-27T07:48:36;96544.38;;;10.52;58.62
45078;BME280;60508;42.622;25.416;2023-04-27T07:51:02;96548.88;;;10.29;58.40
45078;BME280;60508;42.622;25.416;2023-04-27T07:53:28;96546.75;;;10.31;59.20
45078;BME280;60508;42.622;25.416;2023-04-27T07:55:54;96538.44;;;10.72;58.70
45078;BME280;60508;42.622;25.416;2023-04-27T07:58:20;96538.06;;;11.07;58.79
45078;BME280;60508;42.622;25.416;2023-04-27T08:00:46;96543.91;;;11.26;56.39
45078;BME280;60508;42.622;25.416;2023-04-27T08:03:12;96545.34;;;11.34;55.88
45078;BME280;60508;42.622;25.416;2023-04-27T08:05:38;96544.50;;;11.33;55.53
45078;BME280;60508;42.622;25.416;2023-04-27T08:08:04;96547.78;;;11.68;56.24
45078;BME280;60508;42.622;25.416;2023-04-27T08:10:30;96540.69;;;11.89;56.49
45078;BME280;60508;42.622;25.416;2023-04-27T08:12:56;96542.16;;;12.02;53.69
45078;BME280;60508;42.622;25.416;2023-04-27T08:15:22;96540.00;;;11.99;54.60
45078;BME280;60508;42.622;25.416;2023-04-27T08:17:48;96536.50;;;11.98;55.65
45078;BME280;60508;42.622;25.416;2023-04-27T08:20:14;96532.09;;;12.24;53.83
45078;BME280;60508;42.622;25.416;2023-04-27T08:22:41;96552.50;;;11.83;54.10
45078;BME280;60508;42.622;25.416;2023-04-27T08:25:08;96553.19;;;12.00;52.39
45078;BME280;60508;42.622;25.416;2023-04-27T08:27:37;96551.44;;;12.16;50.61
45078;BME280;60508;42.622;25.416;2023-04-27T08:30:05;96550.53;;;12.05;53.45
45078;BME280;60508;42.622;25.416;2023-04-27T08:32:31;96546.34;;;12.20;53.24
45078;BME280;60508;42.622;25.416;2023-04-27T08:34:57;96541.31;;;12.34;52.68
45078;BME280;60508;42.622;25.416;2023-04-27T08:37:22;96544.81;;;12.34;52.56
45078;BME280;60508;42.622;25.416;2023-04-27T08:39:48;96538.78;;;12.65;51.36
45078;BME280;60508;42.622;25.416;2023-04-27T08:42:14;96530.19;;;12.78;50.79
45078;BME280;60508;42.622;25.416;2023-04-27T08:44:41;96526.59;;;12.09;51.13
45078;BME280;60508;42.622;25.416;2023-04-27T08:47:07;96527.09;;;12.06;51.36
45078;BME280;60508;42.622;25.416;2023-04-27T08:49:34;96522.16;;;11.93;51.23
45078;BME280;60508;42.622;25.416;2023-04-27T08:52:00;96531.16;;;12.03;50.98
45078;BME280;60508;42.622;25.416;2023-04-27T08:54:26;96526.84;;;12.08;50.69
45078;BME280;60508;42.622;25.416;2023-04-27T08:56:52;96523.91;;;12.09;52.23
45078;BME280;60508;42.622;25.416;2023-04-27T08:59:19;96529.25;;;12.47;50.50
45078;BME280;60508;42.622;25.416;2023-04-27T09:01:48;96504.25;;;12.09;50.42
45078;BME280;60508;42.622;25.416;2023-04-27T09:04:15;96524.00;;;12.24;51.14
45078;BME280;60508;42.622;25.416;2023-04-27T09:06:42;96532.84;;;12.15;51.32
45078;BME280;60508;42.622;25.416;2023-04-27T09:09:08;96529.91;;;12.21;51.38
45078;BME280;60508;42.622;25.416;2023-04-27T09:11:36;96547.09;;;11.83;51.59
45078;BME280;60508;42.622;25.416;2023-04-27T09:14:20;96529.75;;;11.96;52.21
45078;BME280;60508;42.622;25.416;2023-04-27T09:16:56;96531.31;;;11.92;51.06
45078;BME280;60508;42.622;25.416;2023-04-27T09:19:25;96533.00;;;12.46;50.67
45078;BME280;60508;42.622;25.416;2023-04-27T09:22:02;96521.78;;;13.58;48.39
45078;BME280;60508;42.622;25.416;2023-04-27T09:24:28;96536.56;;;14.64;46.57
45078;BME280;60508;42.622;25.416;2023-04-27T09:26:54;96540.09;;;15.19;43.32
45078;BME280;60508;42.622;25.416;2023-04-27T09:29:31;96528.78;;;14.31;44.90
45078;BME280;60508;42.622;25.416;2023-04-27T09:31:57;96528.72;;;14.47;44.44
45078;BME280;60508;42.622;25.416;2023-04-27T09:34:23;96516.28;;;14.51;44.26
45078;BME280;60508;42.622;25.416;2023-04-27T09:36:49;96516.38;;;13.99;45.49
45078;BME280;60508;42.622;25.416;2023-04-27T09:39:15;96515.47;;;14.50;44.98
45078;BME280;60508;42.622;25.416;2023-04-27T09:41:43;96513.09;;;14.28;44.39
45078;BME280;60508;42.622;25.416;2023-04-27T09:44:11;96514.47;;;14.15;45.05
45078;BME280;60508;42.622;25.416;2023-04-27T09:46:38;96512.09;;;13.78;44.94
45078;BME280;60508;42.622;25.416;2023-04-27T09:49:04;96495.31;;;14.12;45.53
45078;BME280;60508;42.622;25.416;2023-04-27T09:51:30;96514.47;;;14.15;44.70
45078;BME280;60508;42.622;25.416;2023-04-27T09:53:59;96504.97;;;14.33;44.64
45078;BME280;60508;42.622;25.416;2023-04-27T09:56:41;96504.31;;;14.77;44.27
45078;BME280;60508;42.622;25.416;2023-04-27T10:01:59;96504.22;;;14.07;44.60
45078;BME280;60508;42.622;25.416;2023-04-27T10:04:52;96509.31;;;13.21;46.18
45078;BME280;60508;42.622;25.416;2023-04-27T10:07:25;96498.47;;;13.06;47.11
45078;BME280;60508;42.622;25.416;2023-04-27T10:09:52;96512.25;;;13.20;47.05
45078;BME280;60508;42.622;25.416;2023-04-27T10:12:25;96504.38;;;13.03;47.19
45078;BME280;60508;42.622;25.416;2023-04-27T10:14:54;96510.56;;;12.98;47.72
45078;BME280;60508;42.622;25.416;2023-04-27T10:17:29;96513.84;;;13.05;46.51
45078;BME280;60508;42.622;25.416;2023-04-27T10:19:58;96511.16;;;13.05;46.65
45078;BME280;60508;42.622;25.416;2023-04-27T10:22:44;96527.00;;;12.91;45.32
45078;BME280;60508;42.622;25.416;2023-04-27T10:25:23;96508.72;;;12.99;46.90
45078;BME280;60508;42.622;25.416;2023-04-27T10:27:55;96519.81;;;13.23;47.18
45078;BME280;60508;42.622;25.416;2023-04-27T10:30:24;96515.84;;;13.41;46.47
45078;BME280;60508;42.622;25.416;2023-04-27T10:32:55;96517.41;;;13.26;45.54
45078;BME280;60508;42.622;25.416;2023-04-27T10:35:38;96513.59;;;13.07;45.12
45078;BME280;60508;42.622;25.416;2023-04-27T10:38:06;96513.50;;;12.81;47.18
45078;BME280;60508;42.622;25.416;2023-04-27T10:40:33;96515.19;;;13.03;47.56
45078;BME280;60508;42.622;25.416;2023-04-27T10:43:10;96524.31;;;12.91;46.92
45078;BME280;60508;42.622;25.416;2023-04-27T10:45:36;96515.94;;;12.88;46.54
45078;BME280;60508;42.622;25.416;2023-04-27T10:48:03;96506.44;;;12.65;47.19
45078;BME280;60508;42.622;25.416;2023-04-27T10:50:30;96524.66;;;12.42;48.54
45078;BME280;60508;42.622;25.416;2023-04-27T10:53:04;96529.25;;;12.47;47.15
45078;BME280;60508;42.622;25.416;2023-04-27T10:55:30;96523.00;;;12.41;48.28
45078;BME280;60508;42.622;25.416;2023-04-27T10:57:57;96523.50;;;12.28;48.36
45078;BME280;60508;42.622;25.416;2023-04-27T11:00:28;96528.66;;;12.39;49.40
45078;BME280;60508;42.622;25.416;2023-04-27T11:02:56;96529.81;;;12.49;48.39
45078;BME280;60508;42.622;25.416;2023-04-27T11:05:25;96536.94;;;12.22;48.33
45078;BME280;60508;42.622;25.416;2023-04-27T11:08:14;96535.28;;;12.21;48.79
45078;BME280;60508;42.622;25.416;2023-04-27T11:10:47;96525.28;;;12.17;47.77
45078;BME280;60508;42.622;25.416;2023-04-27T11:13:19;96528.03;;;12.22;49.29
45078;BME280;60508;42.622;25.416;2023-04-27T11:18:16;96535.59;;;12.30;48.62
45078;BME280;60508;42.622;25.416;2023-04-27T11:20:43;96520.56;;;12.34;48.31
45078;BME280;60508;42.622;25.416;2023-04-27T11:23:09;96529.22;;;12.41;48.21
45078;BME280;60508;42.622;25.416;2023-04-27T11:25:39;96542.69;;;12.41;47.77
45078;BME280;60508;42.622;25.416;2023-04-27T11:28:16;96534.84;;;12.35;48.19
45078;BME280;60508;42.622;25.416;2023-04-27T11:30:42;96536.97;;;12.33;48.10
45078;BME280;60508;42.622;25.416;2023-04-27T11:33:08;96541.88;;;12.41;47.64
45078;BME280;60508;42.622;25.416;2023-04-27T11:35:34;96538.56;;;12.29;48.32
45078;BME280;60508;42.622;25.416;2023-04-27T11:38:00;96539.13;;;12.31;47.08
45078;BME280;60508;42.622;25.416;2023-04-27T11:40:26;96540.56;;;12.49;48.25
45078;BME280;60508;42.622;25.416;2023-04-27T11:42:57;96546.56;;;12.61;48.24
45078;BME280;60508;42.622;25.416;2023-04-27T11:45:27;96545.78;;;12.66;47.14
45078;BME280;60508;42.622;25.416;2023-04-27T11:47:53;96549.34;;;12.76;47.48
45078;BME280;60508;42.622;25.416;2023-04-27T11:50:23;96544.41;;;12.58;47.00
45078;BME280;60508;42.622;25.416;2023-04-27T11:52:49;96549.50;;;12.59;47.82
45078;BME280;60508;42.622;25.416;2023-04-27T11:55:19;96551.63;;;12.47;47.37
45078;BME280;60508;42.622;25.416;2023-04-27T11:57:46;96537.34;;;12.47;47.81
45078;BME280;60508;42.622;25.416;2023-04-27T12:00:12;96546.03;;;12.64;48.12
45078;BME280;60508;42.622;25.416;2023-04-27T12:02:40;96543.06;;;12.66;48.02
45078;BME280;60508;42.622;25.416;2023-04-27T12:05:06;96551.13;;;12.60;47.81
45078;BME280;60508;42.622;25.416;2023-04-27T12:07:34;96557.13;;;12.68;49.11
45078;BME280;60508;42.622;25.416;2023-04-27T12:10:00;96550.63;;;12.69;48.94
45078;BME280;60508;42.622;25.416;2023-04-27T12:12:26;96545.59;;;12.83;48.96
45078;BME280;60508;42.622;25.416;2023-04-27T12:14:52;96547.50;;;12.92;48.36
45078;BME280;60508;42.622;25.416;2023-04-27T12:17:18;96547.81;;;13.06;48.38
45078;BME280;60508;42.622;25.416;2023-04-27T12:19:44;96547.31;;;13.14;48.14
45078;BME280;60508;42.622;25.416;2023-04-27T12:22:11;96544.56;;;12.99;47.02
45078;BME280;60508;42.622;25.416;2023-04-27T12:24:36;96548.31;;;12.88;47.04
45078;BME280;60508;42.622;25.416;2023-04-27T12:27:03;96544.56;;;13.04;47.00
45078;BME280;60508;42.622;25.416;2023-04-27T12:29:29;96545.19;;;13.32;47.22
45078;BME280;60508;42.622;25.416;2023-04-27T12:31:58;96547.44;;;13.50;47.78
45078;BME280;60508;42.622;25.416;2023-04-27T12:34:24;96543.88;;;13.35;46.14
45078;BME280;60508;42.622;25.416;2023-04-27T12:36:50;96548.97;;;13.26;45.89
45078;BME280;60508;42.622;25.416;2023-04-27T12:39:18;96539.84;;;13.37;46.37
45078;BME280;60508;42.622;25.416;2023-04-27T12:41:48;96549.88;;;13.62;45.48
45078;BME280;60508;42.622;25.416;2023-04-27T12:44:18;96550.13;;;13.56;45.98
45078;BME280;60508;42.622;25.416;2023-04-27T12:46:44;96535.56;;;13.77;45.87
45078;BME280;60508;42.622;25.416;2023-04-27T12:49:10;96557.97;;;14.19;45.31
45078;BME280;60508;42.622;25.416;2023-04-27T12:51:39;96550.09;;;14.38;44.25
45078;BME280;60508;42.622;25.416;2023-04-27T12:54:07;96543.91;;;14.27;44.36
45078;BME280;60508;42.622;25.416;2023-04-27T12:56:34;96541.72;;;14.45;43.77
45078;BME280;60508;42.622;25.416;2023-04-27T12:59:00;96537.69;;;14.27;44.43
45078;BME280;60508;42.622;25.416;2023-04-27T13:01:27;96548.16;;;15.79;41.20